Time;durP1;ratioP1;P1;durP2;ratioP2;P2;SDS_P1;SDS_P2;PMS_P1;PMS_P2;Temp;Humidity;BMP_temperature;BMP_pressure;BME280_temperature;BME280_humidity;BME280_pressure;Samples;Min_cycle;Max_cycle;Signal;HPM_P1;HPM_P2
2023/07/22 00:01:49;;;;;;;1.93;1.60;;;;;;;;;;5044762;28;20181;-84
2023/07/22 00:04:53;;;;;;;2.37;1.50;;;;;;;;;;5032902;28;20540;-84
2023/07/22 00:07:57;;;;;;;3.03;1.87;;;;;;;;;;5044590;28;20620;-84
2023/07/22 00:11:03;;;;;;;2.83;1.87;;;;;;;;;;5032520;28;20177;-84
2023/07/22 00:14:09;;;;;;;1.97;1.67;;;;;;;;;;5033859;28;20200;-84
2023/07/22 00:17:13;;;;;;;2.73;1.63;;;;;;;;;;5022035;28;20181;-85
2023/07/22 00:20:19;;;;;;;2.17;1.50;;;;;;;;;;5034558;28;20196;-84
2023/07/22 00:23:24;;;;;;;2.00;1.67;;;;;;;;;;5034028;28;20225;-85
2023/07/22 00:26:28;;;;;;;3.73;1.97;;;;;;;;;;5045833;28;20177;-85
2023/07/22 00:29:33;;;;;;;1.93;1.70;;;;;;;;;;5034581;28;20177;-84
2023/07/22 00:32:37;;;;;;;3.67;1.70;;;;;;;;;;5046459;28;20217;-84
2023/07/22 00:35:42;;;;;;;2.90;1.90;;;;;;;;;;5034772;28;20176;-84
2023/07/22 00:38:46;;;;;;;2.33;1.60;;;;;;;;;;5034815;28;20556;-84
2023/07/22 00:41:51;;;;;;;2.63;1.70;;;;;;;;;;5022818;28;20176;-84
2023/07/22 00:44:55;;;;;;;5.50;1.73;;;;;;;;;;5034521;28;20184;-84
2023/07/22 00:47:59;;;;;;;2.47;1.90;;;;;;;;;;5033102;28;20533;-84
2023/07/22 00:51:04;;;;;;;2.87;1.63;;;;;;;;;;5033873;28;20180;-84
2023/07/22 00:54:08;;;;;;;3.60;1.80;;;;;;;;;;5021255;28;20201;-84
2023/07/22 00:57:12;;;;;;;3.70;1.90;;;;;;;;;;5032583;28;20184;-84
2023/07/22 01:00:16;;;;;;;2.70;2.10;;;;;;;;;;5021764;28;20169;-84
2023/07/22 01:03:21;;;;;;;2.47;1.80;;;;;;;;;;5043504;28;20212;-84
2023/07/22 01:06:25;;;;;;;2.23;1.80;;;;;;;;;;5018982;28;20521;-84
2023/07/22 01:09:40;;;;;;;4.53;1.93;;;;;;;;;;5030804;28;20173;-84
2023/07/22 01:12:45;;;;;;;3.17;1.97;;;;;;;;;;5030145;28;20221;-84
2023/07/22 01:15:49;;;;;;;3.73;1.97;;;;;;;;;;5029805;28;20177;-84
2023/07/22 01:18:54;;;;;;;3.63;2.40;;;;;;;;;;5029556;28;20208;-84
2023/07/22 01:22:07;;;;;;;4.93;1.53;;;;;;;;;;5018139;28;20185;-84
2023/07/22 01:25:11;;;;;;;2.97;1.90;;;;;;;;;;5018809;28;20181;-84
2023/07/22 01:28:16;;;;;;;2.23;1.53;;;;;;;;;;5029736;28;20177;-84
2023/07/22 01:31:20;;;;;;;1.87;1.67;;;;;;;;;;5029039;28;20180;-85
2023/07/22 01:34:24;;;;;;;3.63;1.83;;;;;;;;;;5040869;28;20185;-84
2023/07/22 01:37:28;;;;;;;3.00;2.30;;;;;;;;;;5029558;28;20180;-84
2023/07/22 01:40:33;;;;;;;2.43;1.80;;;;;;;;;;5029013;28;20177;-84
2023/07/22 01:43:37;;;;;;;3.77;2.07;;;;;;;;;;5029715;28;20216;-84
2023/07/22 01:46:41;;;;;;;2.37;1.73;;;;;;;;;;5028774;28;20176;-84
2023/07/22 01:49:45;;;;;;;3.80;2.00;;;;;;;;;;5029162;28;20196;-84
2023/07/22 01:52:50;;;;;;;5.57;2.20;;;;;;;;;;5039529;28;20228;-84
2023/07/22 01:55:54;;;;;;;4.27;1.97;;;;;;;;;;5016987;28;20176;-84
2023/07/22 01:58:58;;;;;;;3.70;1.90;;;;;;;;;;5028903;28;20201;-84
2023/07/22 02:02:03;;;;;;;5.97;1.93;;;;;;;;;;5017819;28;20212;-84
2023/07/22 02:05:07;;;;;;;6.60;2.00;;;;;;;;;;5029387;28;20172;-84
2023/07/22 02:08:11;;;;;;;3.70;1.90;;;;;;;;;;5017461;28;20529;-84
2023/07/22 02:11:16;;;;;;;3.40;2.13;;;;;;;;;;5016516;28;20647;-84
2023/07/22 02:14:20;;;;;;;2.23;2.03;;;;;;;;;;5040872;28;20181;-84
2023/07/22 02:17:24;;;;;;;4.33;2.10;;;;;;;;;;5017318;28;20185;-84
2023/07/22 02:20:28;;;;;;;3.43;2.20;;;;;;;;;;5028523;28;20193;-84
2023/07/22 02:23:33;;;;;;;2.57;2.20;;;;;;;;;;5028149;28;20220;-84
2023/07/22 02:26:37;;;;;;;2.80;2.03;;;;;;;;;;5015933;28;20176;-84
2023/07/22 02:29:41;;;;;;;4.87;2.03;;;;;;;;;;5027530;28;20517;-84
2023/07/22 02:32:45;;;;;;;3.87;1.90;;;;;;;;;;5027382;28;20216;-84
2023/07/22 02:35:50;;;;;;;2.97;1.87;;;;;;;;;;5015438;28;20185;-84
2023/07/22 02:38:54;;;;;;;3.40;1.80;;;;;;;;;;5015769;28;20204;-85
2023/07/22 02:41:58;;;;;;;2.77;1.90;;;;;;;;;;5015757;28;20197;-84
2023/07/22 02:45:04;;;;;;;2.73;1.90;;;;;;;;;;5026608;28;20185;-84
2023/07/22 02:48:09;;;;;;;4.07;2.20;;;;;;;;;;5038481;28;20181;-84
2023/07/22 02:51:13;;;;;;;2.63;2.10;;;;;;;;;;5026768;28;20185;-84
2023/07/22 02:54:17;;;;;;;5.53;2.20;;;;;;;;;;5011414;28;20620;-84
2023/07/22 02:57:21;;;;;;;2.47;1.90;;;;;;;;;;5010876;28;20176;-85
2023/07/22 03:00:26;;;;;;;2.70;1.80;;;;;;;;;;5033117;28;20184;-85
2023/07/22 03:03:32;;;;;;;3.77;2.13;;;;;;;;;;5021775;28;20216;-85
2023/07/22 03:06:37;;;;;;;2.33;1.83;;;;;;;;;;5013807;28;20177;-85
2023/07/22 03:09:41;;;;;;;3.33;2.33;;;;;;;;;;5025694;28;20517;-85
2023/07/22 03:12:46;;;;;;;4.77;2.37;;;;;;;;;;5026032;28;20212;-85
2023/07/22 03:15:51;;;;;;;3.00;2.23;;;;;;;;;;5025430;28;20176;-85
2023/07/22 03:18:55;;;;;;;2.67;2.00;;;;;;;;;;5014784;28;20205;-83
2023/07/22 03:21:59;;;;;;;4.63;2.30;;;;;;;;;;5014238;28;20624;-83
2023/07/22 03:25:05;;;;;;;5.77;2.30;;;;;;;;;;5037052;28;20659;-84
2023/07/22 03:28:09;;;;;;;2.87;2.10;;;;;;;;;;5014422;28;20200;-83
2023/07/22 03:31:13;;;;;;;3.40;2.00;;;;;;;;;;5036768;28;20177;-83
2023/07/22 03:34:18;;;;;;;2.40;1.90;;;;;;;;;;5025549;28;20185;-84
2023/07/22 03:37:22;;;;;;;3.13;2.40;;;;;;;;;;5014050;28;20204;-83
2023/07/22 03:40:30;;;;;;;2.90;1.93;;;;;;;;;;5013755;28;20213;-83
2023/07/22 03:43:34;;;;;;;2.47;2.20;;;;;;;;;;5014165;28;20212;-84
2023/07/22 03:46:38;;;;;;;2.77;2.30;;;;;;;;;;5014040;28;20521;-83
2023/07/22 03:49:43;;;;;;;3.40;2.20;;;;;;;;;;5027548;28;20181;-84
2023/07/22 03:52:47;;;;;;;3.67;1.90;;;;;;;;;;5020228;28;20228;-84
2023/07/22 03:55:51;;;;;;;3.83;2.30;;;;;;;;;;5031254;28;20177;-84
2023/07/22 03:58:55;;;;;;;2.40;1.97;;;;;;;;;;5031793;28;20209;-84
2023/07/22 04:01:59;;;;;;;4.80;2.23;;;;;;;;;;5019586;28;20620;-84
2023/07/22 04:05:04;;;;;;;4.03;2.40;;;;;;;;;;5019095;28;20197;-84
2023/07/22 04:08:08;;;;;;;5.57;2.50;;;;;;;;;;5030579;28;20197;-84
2023/07/22 04:11:14;;;;;;;6.70;2.33;;;;;;;;;;5021594;28;20203;-84
2023/07/22 04:14:18;;;;;;;3.13;2.30;;;;;;;;;;5030918;28;20177;-84
2023/07/22 04:17:22;;;;;;;2.67;2.00;;;;;;;;;;5042803;28;20517;-84
2023/07/22 04:20:27;;;;;;;7.90;2.77;;;;;;;;;;5043365;28;20217;-85
2023/07/22 04:23:33;;;;;;;3.47;2.23;;;;;;;;;;5031555;28;20208;-84
2023/07/22 04:26:37;;;;;;;4.73;2.27;;;;;;;;;;5042999;28;20177;-84
2023/07/22 04:29:41;;;;;;;3.87;2.27;;;;;;;;;;5020176;28;20197;-85
2023/07/22 04:32:49;;;;;;;3.33;2.30;;;;;;;;;;5031683;28;20679;-84
2023/07/22 04:35:56;;;;;;;8.47;2.27;;;;;;;;;;5020723;28;20172;-84
2023/07/22 04:39:00;;;;;;;4.23;2.40;;;;;;;;;;5032834;28;20208;-84
2023/07/22 04:42:04;;;;;;;4.27;2.03;;;;;;;;;;5020461;28;20212;-84
2023/07/22 04:45:10;;;;;;;2.80;2.03;;;;;;;;;;5031482;28;20639;-84
2023/07/22 04:48:16;;;;;;;3.77;2.37;;;;;;;;;;5020529;28;20177;-84
2023/07/22 04:51:20;;;;;;;2.93;2.20;;;;;;;;;;5032573;28;20177;-84
2023/07/22 04:54:28;;;;;;;3.83;2.33;;;;;;;;;;5031848;28;20177;-84
2023/07/22 04:57:31;;;;;;;3.10;2.30;;;;;;;;;;5020017;28;20541;-85
2023/07/22 05:00:39;;;;;;;2.87;2.10;;;;;;;;;;5032540;28;20208;-84
2023/07/22 05:03:43;;;;;;;3.23;2.20;;;;;;;;;;5030667;28;20225;-84
2023/07/22 05:06:47;;;;;;;4.10;2.10;;;;;;;;;;5042024;28;20181;-83
2023/07/22 05:09:53;;;;;;;5.70;2.33;;;;;;;;;;5019822;28;20172;-83
2023/07/22 05:12:57;;;;;;;3.60;2.40;;;;;;;;;;5031768;28;20212;-83
2023/07/22 05:16:01;;;;;;;2.60;2.17;;;;;;;;;;5019525;28;20521;-84
2023/07/22 05:19:07;;;;;;;2.30;2.00;;;;;;;;;;5029597;28;20204;-84
2023/07/22 05:22:12;;;;;;;4.03;2.10;;;;;;;;;;5040548;28;20213;-84
2023/07/22 05:25:16;;;;;;;6.77;2.67;;;;;;;;;;5015212;28;20177;-85
2023/07/22 05:28:21;;;;;;;4.90;3.07;;;;;;;;;;5024856;28;20176;-85
2023/07/22 05:31:25;;;;;;;3.70;2.47;;;;;;;;;;5014244;28;20172;-82
2023/07/22 05:34:29;;;;;;;6.73;2.87;;;;;;;;;;5026827;28;20176;-85
2023/07/22 05:37:35;;;;;;;6.23;3.07;;;;;;;;;;5023532;28;20536;-85
2023/07/22 05:40:43;;;;;;;3.87;2.87;;;;;;;;;;5011435;28;20200;-85
2023/07/22 05:44:15;;;;;;;4.73;2.93;;;;;;;;;;5026050;28;20172;-86
2023/07/22 05:47:19;;;;;;;6.47;2.93;;;;;;;;;;5021950;28;20636;-86
2023/07/22 05:50:25;;;;;;;6.97;2.70;;;;;;;;;;5021544;28;20635;-86
2023/07/22 05:53:58;;;;;;;3.13;2.80;;;;;;;;;;5010316;28;20687;-86
2023/07/22 05:57:03;;;;;;;5.37;2.63;;;;;;;;;;4999332;28;20185;-86
2023/07/22 06:00:14;;;;;;;5.67;3.50;;;;;;;;;;5021775;28;20235;-86
2023/07/22 06:03:22;;;;;;;5.43;3.00;;;;;;;;;;5010912;28;20564;-85
2023/07/22 06:06:27;;;;;;;5.13;2.80;;;;;;;;;;5027758;28;20172;-85
2023/07/22 06:09:31;;;;;;;4.80;2.77;;;;;;;;;;5015852;28;20192;-85
2023/07/22 06:12:35;;;;;;;4.00;2.80;;;;;;;;;;5036119;28;20208;-85
2023/07/22 06:15:39;;;;;;;4.20;2.63;;;;;;;;;;5024685;28;20196;-85
2023/07/22 06:18:43;;;;;;;3.23;2.87;;;;;;;;;;5023352;28;20197;-86
2023/07/22 06:21:48;;;;;;;5.30;2.70;;;;;;;;;;5023742;28;20628;-86
2023/07/22 06:24:52;;;;;;;4.83;2.83;;;;;;;;;;5024721;28;20173;-83
2023/07/22 06:27:57;;;;;;;2.70;2.20;;;;;;;;;;5012863;28;20651;-83
2023/07/22 06:31:01;;;;;;;5.60;2.50;;;;;;;;;;5013711;28;20192;-85
2023/07/22 06:34:05;;;;;;;5.10;2.43;;;;;;;;;;5018328;28;20208;-85
2023/07/22 06:37:09;;;;;;;4.17;2.50;;;;;;;;;;5027476;28;20173;-85
2023/07/22 06:40:14;;;;;;;3.27;2.20;;;;;;;;;;5013590;28;20213;-85
2023/07/22 06:43:18;;;;;;;7.40;2.73;;;;;;;;;;5038702;28;20568;-86
2023/07/22 06:46:22;;;;;;;2.40;2.20;;;;;;;;;;5029867;28;20192;-85
2023/07/22 06:49:26;;;;;;;3.47;2.10;;;;;;;;;;5031179;28;20193;-85
2023/07/22 06:52:31;;;;;;;6.30;2.50;;;;;;;;;;5022380;28;20216;-86
2023/07/22 06:55:35;;;;;;;4.70;2.27;;;;;;;;;;5021279;28;20173;-86
2023/07/22 06:58:39;;;;;;;3.30;2.50;;;;;;;;;;5020795;28;20177;-85
2023/07/22 07:01:43;;;;;;;4.47;2.70;;;;;;;;;;5021072;28;20181;-85
2023/07/22 07:04:49;;;;;;;3.00;2.40;;;;;;;;;;5031922;28;20185;-85
2023/07/22 07:07:53;;;;;;;4.90;2.63;;;;;;;;;;5029350;28;20197;-85
2023/07/22 07:11:00;;;;;;;3.00;2.20;;;;;;;;;;5018363;28;20201;-85
2023/07/22 07:14:05;;;;;;;3.67;2.47;;;;;;;;;;5041428;28;20564;-85
2023/07/22 07:17:09;;;;;;;5.10;2.10;;;;;;;;;;5029669;28;20188;-85
2023/07/22 07:20:14;;;;;;;5.07;3.00;;;;;;;;;;5018052;28;20209;-86
2023/07/22 07:23:18;;;;;;;3.97;1.93;;;;;;;;;;5018870;28;20719;-85
2023/07/22 07:26:22;;;;;;;2.73;2.07;;;;;;;;;;5042106;28;20192;-85
2023/07/22 07:29:26;;;;;;;9.60;2.47;;;;;;;;;;5019260;28;20196;-85
2023/07/22 07:32:30;;;;;;;6.73;2.30;;;;;;;;;;5018403;28;20216;-86
2023/07/22 07:35:35;;;;;;;2.53;1.70;;;;;;;;;;5040348;28;20196;-85
2023/07/22 07:38:39;;;;;;;2.60;1.70;;;;;;;;;;5029168;28;20184;-85
2023/07/22 07:41:43;;;;;;;2.93;1.70;;;;;;;;;;5018788;28;20212;-85
2023/07/22 07:44:47;;;;;;;2.10;1.80;;;;;;;;;;5029546;28;20181;-85
2023/07/22 07:47:51;;;;;;;3.27;1.47;;;;;;;;;;5029384;28;20200;-85
2023/07/22 07:50:56;;;;;;;3.00;1.73;;;;;;;;;;5028769;28;20177;-85
2023/07/22 07:54:00;;;;;;;2.90;2.13;;;;;;;;;;5028591;28;20229;-86
2023/07/22 07:57:05;;;;;;;2.03;1.80;;;;;;;;;;5040032;28;20181;-85
2023/07/22 08:00:09;;;;;;;7.50;2.27;;;;;;;;;;5027706;28;20230;-85
2023/07/22 08:03:13;;;;;;;3.10;2.10;;;;;;;;;;5028735;28;20217;-85
2023/07/22 08:06:17;;;;;;;3.90;1.87;;;;;;;;;;5027903;28;20172;-86
2023/07/22 08:09:22;;;;;;;3.87;2.03;;;;;;;;;;5040522;28;20179;-86
2023/07/22 08:12:26;;;;;;;3.65;1.90;;;;;;;;;;5017202;28;20211;-86
2023/07/22 08:15:30;;;;;;;2.92;1.65;;;;;;;;;;5015849;28;20176;-85
2023/07/22 08:18:35;;;;;;;1.88;1.52;;;;;;;;;;5027389;28;20200;-86
2023/07/22 08:21:40;;;;;;;2.50;1.65;;;;;;;;;;5016617;28;20220;-85
2023/07/22 08:24:44;;;;;;;2.70;2.00;;;;;;;;;;5015942;28;20195;-86
2023/07/22 08:27:49;;;;;;;2.55;1.83;;;;;;;;;;5015328;28;20202;-86
2023/07/22 08:30:56;;;;;;;2.60;1.45;;;;;;;;;;5024677;28;20183;-86
2023/07/22 08:34:01;;;;;;;3.10;1.27;;;;;;;;;;5026296;28;20212;-86
2023/07/22 08:37:04;;;;;;;2.33;1.58;;;;;;;;;;5027236;28;20184;-86
2023/07/22 08:40:09;;;;;;;10.15;1.90;;;;;;;;;;5026134;28;20214;-86
2023/07/22 08:43:15;;;;;;;2.40;1.20;;;;;;;;;;5025085;28;20585;-86
2023/07/22 08:46:22;;;;;;;2.40;1.63;;;;;;;;;;5024826;28;20183;-86
2023/07/22 08:49:27;;;;;;;1.65;1.40;;;;;;;;;;5036258;28;20187;-86
2023/07/22 08:52:33;;;;;;;3.55;1.40;;;;;;;;;;5036140;28;20216;-86
2023/07/22 08:55:40;;;;;;;1.83;1.35;;;;;;;;;;5014532;28;20181;-86
2023/07/22 08:58:45;;;;;;;8.85;2.28;;;;;;;;;;5037349;28;20175;-86
2023/07/22 09:01:51;;;;;;;3.55;1.45;;;;;;;;;;5026064;28;20234;-86
2023/07/22 09:04:56;;;;;;;1.60;1.20;;;;;;;;;;5024471;28;20192;-86
2023/07/22 09:08:02;;;;;;;1.63;1.33;;;;;;;;;;5023989;28;20204;-86
2023/07/22 09:11:06;;;;;;;2.60;1.42;;;;;;;;;;5012436;28;20200;-86
2023/07/22 09:14:12;;;;;;;1.83;1.35;;;;;;;;;;5012768;28;20181;-86
2023/07/22 09:17:16;;;;;;;1.85;1.40;;;;;;;;;;5023331;28;20545;-86
2023/07/22 09:20:22;;;;;;;1.98;1.63;;;;;;;;;;5024332;28;20208;-86
2023/07/22 09:23:34;;;;;;;3.58;1.30;;;;;;;;;;5012353;28;20217;-86
2023/07/22 09:26:42;;;;;;;3.17;1.50;;;;;;;;;;5023987;28;20529;-86
2023/07/22 09:29:53;;;;;;;6.22;1.65;;;;;;;;;;5023456;28;20173;-86
2023/07/22 09:33:02;;;;;;;1.40;1.30;;;;;;;;;;5023222;28;20212;-86
2023/07/22 09:41:47;;;;;;;1.55;1.30;;;;;;;;;;5041935;28;20209;-86
2023/07/22 09:45:12;;;;;;;10.27;1.73;;;;;;;;;;5014117;28;20668;-86
2023/07/22 09:52:15;;;;;;;2.05;1.30;;;;;;;;;;5045625;22;20689;-82
2023/07/22 09:55:25;;;;;;;3.20;1.25;;;;;;;;;;5015172;28;20194;-80
2023/07/22 09:58:30;;;;;;;13.95;2.10;;;;;;;;;;5004935;28;20194;-79
2023/07/22 10:01:39;;;;;;;1.95;1.52;;;;;;;;;;5014841;28;20213;-80
2023/07/22 10:04:46;;;;;;;2.35;1.50;;;;;;;;;;4983221;28;20195;-80
2023/07/22 10:07:58;;;;;;;1.90;1.45;;;;;;;;;;4998029;28;20520;-80
2023/07/22 10:11:07;;;;;;;1.88;1.40;;;;;;;;;;4984072;28;20178;-80
2023/07/22 10:14:13;;;;;;;2.58;1.35;;;;;;;;;;4972329;28;20214;-80
2023/07/22 10:17:18;;;;;;;3.10;1.50;;;;;;;;;;4986036;28;20178;-80
2023/07/22 10:20:23;;;;;;;2.38;1.30;;;;;;;;;;4986231;28;20178;-80
2023/07/22 10:23:29;;;;;;;1.40;1.17;;;;;;;;;;4975105;28;20226;-80
2023/07/22 10:26:34;;;;;;;2.15;1.40;;;;;;;;;;4997787;28;20530;-80
2023/07/22 10:29:38;;;;;;;1.73;1.30;;;;;;;;;;4986056;28;20198;-80
2023/07/22 10:32:51;;;;;;;2.88;1.38;;;;;;;;;;4997638;28;20681;-80
2023/07/22 10:36:07;;;;;;;4.03;1.30;;;;;;;;;;4987101;28;20191;-80
2023/07/22 10:39:25;;;;;;;4.43;1.35;;;;;;;;;;4989413;28;20187;-80
2023/07/22 10:42:31;;;;;;;3.78;1.20;;;;;;;;;;4987150;28;20234;-80
2023/07/22 10:46:06;;;;;;;3.28;1.25;;;;;;;;;;4985318;28;20186;-80
2023/07/22 10:49:12;;;;;;;2.90;1.30;;;;;;;;;;4974877;28;20622;-80
2023/07/22 10:52:43;;;;;;;1.83;1.20;;;;;;;;;;4974329;28;20179;-80
2023/07/22 10:56:16;;;;;;;3.90;1.33;;;;;;;;;;4985956;28;20183;-80
2023/07/22 10:59:26;;;;;;;1.40;1.30;;;;;;;;;;4974881;28;20183;-80
2023/07/22 11:02:30;;;;;;;9.60;2.38;;;;;;;;;;4998246;28;20600;-80
2023/07/22 11:06:01;;;;;;;1.77;1.20;;;;;;;;;;4986061;28;20178;-80
2023/07/22 11:09:06;;;;;;;1.45;1.20;;;;;;;;;;4974433;28;20543;-80
2023/07/22 11:12:16;;;;;;;5.10;1.73;;;;;;;;;;4974434;28;20179;-80
2023/07/22 11:15:21;;;;;;;22.88;2.33;;;;;;;;;;4985615;28;20182;-79
2023/07/22 11:18:36;;;;;;;2.85;1.33;;;;;;;;;;4985074;28;20187;-84
2023/07/22 11:21:44;;;;;;;2.35;1.65;;;;;;;;;;4973746;28;20202;-80
2023/07/22 11:24:48;;;;;;;2.65;1.20;;;;;;;;;;4985148;28;20186;-80
2023/07/22 11:27:53;;;;;;;1.48;1.25;;;;;;;;;;4973690;28;20178;-80
2023/07/22 11:30:58;;;;;;;2.72;1.33;;;;;;;;;;4973385;28;20517;-80
2023/07/22 11:34:05;;;;;;;3.03;1.50;;;;;;;;;;4984347;28;20210;-80
2023/07/22 11:37:09;;;;;;;13.40;2.65;;;;;;;;;;4984616;28;20187;-80
2023/07/22 11:40:13;;;;;;;4.78;1.33;;;;;;;;;;4973083;28;20175;-80
2023/07/22 11:43:17;;;;;;;3.92;1.23;;;;;;;;;;4973232;28;20218;-80
2023/07/22 11:46:21;;;;;;;4.53;1.90;;;;;;;;;;4984154;28;20190;-80
2023/07/22 11:49:33;;;;;;;2.28;1.40;;;;;;;;;;4984059;28;20198;-80
2023/07/22 11:52:37;;;;;;;3.00;1.30;;;;;;;;;;4972789;28;20217;-82
2023/07/22 11:55:42;;;;;;;3.65;1.38;;;;;;;;;;4973275;28;20621;-80
2023/07/22 11:58:56;;;;;;;1.38;1.27;;;;;;;;;;4983999;28;20183;-80
2023/07/22 12:02:01;;;;;;;5.30;1.60;;;;;;;;;;4973074;28;20544;-80
2023/07/22 12:05:06;;;;;;;7.07;1.77;;;;;;;;;;4972551;28;20202;-81
2023/07/22 12:08:15;;;;;;;5.70;1.50;;;;;;;;;;4973301;28;20170;-80
2023/07/22 12:11:23;;;;;;;13.38;1.92;;;;;;;;;;4983927;28;20170;-80
2023/07/22 12:14:36;;;;;;;6.30;1.40;;;;;;;;;;4995523;28;20183;-82
2023/07/22 12:17:48;;;;;;;5.57;1.20;;;;;;;;;;4972553;28;20630;-81
2023/07/22 12:20:52;;;;;;;2.08;1.50;;;;;;;;;;4983623;28;20179;-81
2023/07/22 12:23:56;;;;;;;6.70;1.70;;;;;;;;;;4983412;28;20218;-80
2023/07/22 12:27:00;;;;;;;2.20;1.70;;;;;;;;;;4983535;28;20186;-80
2023/07/22 12:30:07;;;;;;;1.70;1.33;;;;;;;;;;4983628;28;20183;-80
2023/07/22 12:33:11;;;;;;;2.00;1.40;;;;;;;;;;4995378;28;20552;-81
2023/07/22 12:36:15;;;;;;;5.15;1.50;;;;;;;;;;4972752;28;20179;-79
2023/07/22 12:39:19;;;;;;;2.80;1.50;;;;;;;;;;4983410;28;20187;-81
2023/07/22 12:42:24;;;;;;;1.70;1.55;;;;;;;;;;4983661;28;20226;-81
2023/07/22 12:45:29;;;;;;;2.03;1.58;;;;;;;;;;4984653;28;20661;-81
2023/07/22 12:48:33;;;;;;;4.57;1.70;;;;;;;;;;4984383;28;20182;-82
2023/07/22 12:51:38;;;;;;;1.90;1.35;;;;;;;;;;4972622;28;20179;-80
2023/07/22 12:54:42;;;;;;;2.28;1.50;;;;;;;;;;4995476;28;20665;-81
2023/07/22 12:57:46;;;;;;;3.85;1.60;;;;;;;;;;4972765;28;20182;-81
2023/07/22 13:00:50;;;;;;;2.70;1.40;;;;;;;;;;4995453;28;20638;-81
2023/07/22 13:03:55;;;;;;;3.17;2.35;;;;;;;;;;4983856;28;20214;-81
2023/07/22 13:06:59;;;;;;;2.08;1.42;;;;;;;;;;4972163;28;20183;-81
2023/07/22 13:10:06;;;;;;;3.88;1.63;;;;;;;;;;4971801;28;20174;-80
2023/07/22 13:13:10;;;;;;;3.08;1.52;;;;;;;;;;4982372;28;20214;-81
2023/07/22 13:16:14;;;;;;;3.90;1.30;;;;;;;;;;4982776;28;20187;-80
2023/07/22 13:19:18;;;;;;;4.68;1.70;;;;;;;;;;4982650;28;20637;-81
2023/07/22 13:22:23;;;;;;;3.13;1.70;;;;;;;;;;4982645;28;20233;-81
2023/07/22 13:25:27;;;;;;;2.25;1.42;;;;;;;;;;4971733;28;20520;-81
2023/07/22 13:28:31;;;;;;;5.93;1.50;;;;;;;;;;4994365;28;20503;-81
2023/07/22 13:31:35;;;;;;;2.30;1.60;;;;;;;;;;4960235;28;20183;-81
2023/07/22 13:34:39;;;;;;;2.92;1.73;;;;;;;;;;4971438;28;20182;-81
2023/07/22 13:37:44;;;;;;;2.17;1.50;;;;;;;;;;4971515;28;20198;-81
2023/07/22 13:40:48;;;;;;;4.03;1.50;;;;;;;;;;4971558;28;20522;-81
2023/07/22 13:43:52;;;;;;;4.63;1.70;;;;;;;;;;4971743;28;20218;-81
2023/07/22 13:46:56;;;;;;;2.28;1.55;;;;;;;;;;4982643;28;20202;-83
2023/07/22 13:50:00;;;;;;;1.73;1.30;;;;;;;;;;4970430;28;20194;-82
2023/07/22 13:53:04;;;;;;;2.97;1.73;;;;;;;;;;4971140;28;20688;-82
2023/07/22 13:56:08;;;;;;;2.75;1.35;;;;;;;;;;4970931;28;20183;-81
2023/07/22 13:59:13;;;;;;;3.03;1.33;;;;;;;;;;4982239;28;20182;-82
2023/07/22 14:02:17;;;;;;;5.28;1.50;;;;;;;;;;4971043;28;20211;-82
2023/07/22 14:05:21;;;;;;;2.30;1.50;;;;;;;;;;4971177;28;20174;-82
2023/07/22 14:08:25;;;;;;;1.92;1.38;;;;;;;;;;4959881;28;20175;-82
2023/07/22 14:11:29;;;;;;;6.75;1.92;;;;;;;;;;4970928;28;20182;-82
2023/07/22 14:14:33;;;;;;;1.85;1.45;;;;;;;;;;4971100;28;20182;-84
2023/07/22 14:17:40;;;;;;;3.30;1.77;;;;;;;;;;4981871;28;20178;-84
2023/07/22 14:20:45;;;;;;;2.97;1.50;;;;;;;;;;4959502;28;20179;-84
2023/07/22 14:23:49;;;;;;;2.40;1.45;;;;;;;;;;4981815;28;20206;-84
2023/07/22 14:26:53;;;;;;;2.90;1.42;;;;;;;;;;4981590;28;20198;-84
2023/07/22 14:29:57;;;;;;;1.95;1.58;;;;;;;;;;4970744;28;20198;-84
2023/07/22 14:33:01;;;;;;;2.63;1.60;;;;;;;;;;4970979;28;20214;-84
2023/07/22 14:36:05;;;;;;;2.20;1.70;;;;;;;;;;4971140;28;20182;-83
2023/07/22 14:39:10;;;;;;;2.55;1.42;;;;;;;;;;4982780;28;20528;-82
2023/07/22 14:42:14;;;;;;;2.78;1.90;;;;;;;;;;4970775;28;20206;-82
2023/07/22 14:45:18;;;;;;;3.33;1.73;;;;;;;;;;4982652;28;20191;-82
2023/07/22 14:48:22;;;;;;;5.10;1.52;;;;;;;;;;4982331;28;20179;-83
2023/07/22 14:51:26;;;;;;;4.68;1.90;;;;;;;;;;4982138;28;20178;-82
2023/07/22 14:54:31;;;;;;;2.03;1.60;;;;;;;;;;4970890;28;20183;-82
2023/07/22 14:57:35;;;;;;;1.67;1.55;;;;;;;;;;4970350;28;20179;-82
2023/07/22 15:00:39;;;;;;;5.93;2.08;;;;;;;;;;4970703;28;20182;-82
2023/07/22 15:03:44;;;;;;;3.03;1.70;;;;;;;;;;4974548;28;20233;-82
2023/07/22 15:06:48;;;;;;;6.03;1.70;;;;;;;;;;4985128;28;20646;-82
2023/07/22 15:09:53;;;;;;;2.33;1.90;;;;;;;;;;4996720;28;20183;-82
2023/07/22 15:12:57;;;;;;;5.07;1.75;;;;;;;;;;4974043;28;20222;-82
2023/07/22 15:16:02;;;;;;;2.50;1.52;;;;;;;;;;4985143;28;20178;-82
2023/07/22 15:19:07;;;;;;;1.70;1.50;;;;;;;;;;4974034;28;20182;-83
2023/07/22 15:22:11;;;;;;;1.90;1.60;;;;;;;;;;4984795;28;20206;-83
2023/07/22 15:25:15;;;;;;;2.78;1.60;;;;;;;;;;4984696;28;20178;-84
2023/07/22 15:28:19;;;;;;;2.47;1.60;;;;;;;;;;4996679;28;20179;-82
2023/07/22 15:31:22;;;;;;;3.25;1.55;;;;;;;;;;4996490;28;20183;-84
2023/07/22 15:34:27;;;;;;;2.58;1.45;;;;;;;;;;4962177;28;20214;-86
2023/07/22 15:37:31;;;;;;;3.38;1.63;;;;;;;;;;4973597;28;20175;-85
2023/07/22 15:40:36;;;;;;;4.32;1.60;;;;;;;;;;4984433;28;20178;-86
2023/07/22 15:43:40;;;;;;;2.17;1.58;;;;;;;;;;4973328;28;20226;-86
2023/07/22 15:46:44;;;;;;;1.92;1.55;;;;;;;;;;4973019;28;20198;-85
2023/07/22 15:49:48;;;;;;;1.98;1.45;;;;;;;;;;4973301;28;20202;-87
2023/07/22 15:52:53;;;;;;;2.63;1.65;;;;;;;;;;4999011;22;20241;-72
2023/07/22 15:55:57;;;;;;;3.30;1.50;;;;;;;;;;4996498;28;20183;-72
2023/07/22 15:59:01;;;;;;;2.92;1.70;;;;;;;;;;4995895;28;20181;-72
2023/07/22 16:02:05;;;;;;;1.65;1.50;;;;;;;;;;4995652;28;20220;-72
2023/07/22 16:05:10;;;;;;;3.10;1.50;;;;;;;;;;4995807;28;20183;-72
2023/07/22 16:08:15;;;;;;;2.00;1.70;;;;;;;;;;4995707;28;20245;-71
2023/07/22 16:11:19;;;;;;;2.50;1.70;;;;;;;;;;4995533;28;20699;-72
2023/07/22 16:14:23;;;;;;;3.15;1.70;;;;;;;;;;4996218;28;20636;-72
2023/07/22 16:17:27;;;;;;;2.90;1.73;;;;;;;;;;4995923;28;20180;-71
2023/07/22 16:20:31;;;;;;;3.88;1.40;;;;;;;;;;4983671;28;20629;-72
2023/07/22 16:23:35;;;;;;;1.83;1.52;;;;;;;;;;4983642;28;20214;-72
2023/07/22 16:26:39;;;;;;;2.40;1.58;;;;;;;;;;4995393;28;20182;-72
2023/07/22 16:29:43;;;;;;;2.58;1.73;;;;;;;;;;4995271;28;20189;-71
2023/07/22 16:32:47;;;;;;;2.72;1.50;;;;;;;;;;4995559;28;20177;-72
2023/07/22 16:35:51;;;;;;;2.60;1.80;;;;;;;;;;4983559;28;20188;-72
2023/07/22 16:38:56;;;;;;;5.00;1.90;;;;;;;;;;4995250;28;20184;-72
2023/07/22 16:42:00;;;;;;;3.95;1.90;;;;;;;;;;4995112;28;20211;-72
2023/07/22 16:45:04;;;;;;;2.70;1.50;;;;;;;;;;4983031;28;20183;-72
2023/07/22 16:48:08;;;;;;;2.00;1.70;;;;;;;;;;4983229;28;20184;-72
2023/07/22 16:51:12;;;;;;;2.70;1.67;;;;;;;;;;4983253;28;20218;-72
2023/07/22 16:54:16;;;;;;;2.22;1.67;;;;;;;;;;4994932;28;20196;-72
2023/07/22 16:57:20;;;;;;;3.15;1.48;;;;;;;;;;4995303;28;20173;-72
2023/07/22 17:00:25;;;;;;;2.25;1.50;;;;;;;;;;4994889;28;20178;-71
2023/07/22 17:03:29;;;;;;;2.00;1.60;;;;;;;;;;4994549;28;20208;-72
2023/07/22 17:06:34;;;;;;;5.43;2.00;;;;;;;;;;4994569;28;20248;-71
2023/07/22 17:09:38;;;;;;;2.75;1.90;;;;;;;;;;4994749;28;20184;-72
2023/07/22 17:12:42;;;;;;;2.40;1.58;;;;;;;;;;4994634;28;20186;-72
2023/07/22 17:15:45;;;;;;;2.00;1.60;;;;;;;;;;4982794;28;20641;-71
2023/07/22 17:18:50;;;;;;;2.13;1.80;;;;;;;;;;4994710;28;20190;-72
2023/07/22 17:21:54;;;;;;;2.27;1.60;;;;;;;;;;4994878;28;20224;-72
2023/07/22 17:24:58;;;;;;;5.90;2.10;;;;;;;;;;4993824;28;20186;-72
2023/07/22 17:28:02;;;;;;;8.83;3.37;;;;;;;;;;4994517;28;20519;-71
2023/07/22 17:31:06;;;;;;;9.73;4.00;;;;;;;;;;4994169;28;20227;-72
2023/07/22 17:34:11;;;;;;;6.20;2.20;;;;;;;;;;4994394;28;20191;-72
2023/07/22 17:37:15;;;;;;;13.13;3.57;;;;;;;;;;4994386;28;20180;-72
2023/07/22 17:40:19;;;;;;;3.67;1.90;;;;;;;;;;4994005;28;20178;-72
2023/07/22 17:43:23;;;;;;;4.87;1.90;;;;;;;;;;4993982;28;20557;-72
2023/07/22 17:46:27;;;;;;;2.17;1.40;;;;;;;;;;4994015;28;20189;-72
2023/07/22 17:49:32;;;;;;;2.97;2.00;;;;;;;;;;4994288;28;20180;-72
2023/07/22 17:52:36;;;;;;;2.50;1.87;;;;;;;;;;4982260;28;20559;-72
2023/07/22 17:55:40;;;;;;;3.37;2.00;;;;;;;;;;4982434;28;20176;-72
2023/07/22 17:58:44;;;;;;;3.20;2.07;;;;;;;;;;4993804;28;20182;-72
2023/07/22 18:01:48;;;;;;;2.87;1.87;;;;;;;;;;4994064;28;20717;-72
2023/07/22 18:04:53;;;;;;;2.77;1.60;;;;;;;;;;4994154;28;20548;-72
2023/07/22 18:07:57;;;;;;;3.20;1.90;;;;;;;;;;4993609;28;20182;-73
2023/07/22 18:11:01;;;;;;;2.10;1.80;;;;;;;;;;4993543;28;20206;-73
2023/07/22 18:14:04;;;;;;;4.80;2.03;;;;;;;;;;4993936;28;20181;-72
2023/07/22 18:17:09;;;;;;;3.37;1.87;;;;;;;;;;4993952;28;20178;-72
2023/07/22 18:20:13;;;;;;;3.83;2.30;;;;;;;;;;4993480;28;20176;-72
2023/07/22 18:23:17;;;;;;;2.90;2.00;;;;;;;;;;4993840;28;20210;-72
2023/07/22 18:26:22;;;;;;;3.70;2.00;;;;;;;;;;4993669;28;20548;-72
2023/07/22 18:29:26;;;;;;;4.03;2.00;;;;;;;;;;4993882;28;20189;-72
2023/07/22 18:32:30;;;;;;;4.63;2.33;;;;;;;;;;4993415;28;20213;-72
2023/07/22 18:35:35;;;;;;;2.87;2.10;;;;;;;;;;4995552;28;20185;-72
2023/07/22 18:38:39;;;;;;;3.60;2.40;;;;;;;;;;4997477;28;20179;-73
2023/07/22 18:41:43;;;;;;;5.10;2.27;;;;;;;;;;4997659;28;20224;-73